| time (UTC) | temp F | wind direction | speed knots | gust knots | rain 1hr in | rain 24hr in | rain mn in | humidity % | barometer mb |
| 20260906111956 | 87 | 0.0 | 0.0 | 0.00 | 0.00 | 0.00 | 49 | 1027.2 | |
| 20260906110956 | 87 | 0.0 | 0.0 | 0.00 | 0.00 | 0.00 | 49 | 1027.3 | |
| 20260906105956 | 89 | 0.0 | 0.0 | 0.00 | 0.00 | 0.00 | 44 | 1027.2 | |
| 20260906104956 | 88 | 0.0 | 0.0 | 0.00 | 0.00 | 0.00 | 46 | 1027.5 | |
| 20260906103956 | 87 | 0.0 | 0.0 | 0.00 | 0.00 | 0.00 | 47 | 1027.4 | |
| 20260906102956 | 90 | 0.0 | 0.0 | 0.00 | 0.00 | 0.00 | 43 | 1027.4 | |
| 20260906101956 | 89 | 0.0 | 0.0 | 0.00 | 0.00 | 0.00 | 49 | 1027.2 | |
| 20260906100956 | 87 | 0.0 | 0.0 | 0.00 | 0.00 | 0.00 | 50 | 1027.2 | |
| 20260906095956 | 88 | 0.0 | 0.0 | 0.00 | 0.00 | 0.00 | 49 | 1027.4 | |
| 20260906094956 | 87 | 0.0 | 0.0 | 0.00 | 0.00 | 0.00 | 52 | 1027.4 | |
| 20260906093956 | 86 | 0.0 | 0.0 | 0.00 | 0.00 | 0.00 | 53 | 1027.4 | |
| 20260906092956 | 86 | 0.0 | 0.0 | 0.00 | 0.00 | 0.00 | 54 | 1027.3 | |
| 20260906091956 | 86 | 0.0 | 0.0 | 0.00 | 0.00 | 0.00 | 53 | 1027.2 | |
| 20260906090956 | 88 | 0.0 | 0.0 | 0.00 | 0.00 | 0.00 | 52 | 1027.2 | |
| 20260906085956 | 85 | 0.0 | 0.0 | 0.00 | 0.00 | 0.00 | 52 | 1027.2 | |
| 20260906084956 | 84 | 0.0 | 0.0 | 0.00 | 0.00 | 0.00 | 52 | 1027.1 | |
| 20260906083956 | 83 | 0.0 | 0.0 | 0.00 | 0.00 | 0.00 | 53 | 1027.3 | |
| 20260906082956 | 82 | 0.0 | 0.0 | 0.00 | 0.00 | 0.00 | 53 | 1027.3 | |
| 20260906081956 | 84 | 0.0 | 0.0 | 0.00 | 0.00 | 0.00 | 54 | 1027.4 | |
| 20260906080956 | 81 | 0.0 | 0.0 | 0.00 | 0.00 | 0.00 | 56 | 1027.5 | |
| 20260906075956 | 80 | 0.0 | 0.0 | 0.00 | 0.00 | 0.00 | 56 | 1027.4 | |
| 20260906074956 | 78 | 0.0 | 0.0 | 0.00 | 0.00 | 0.00 | 57 | 1027.5 | |
| 20260906073956 | 77 | 0.0 | 0.0 | 0.00 | 0.00 | 0.00 | 59 | 1027.5 | |
| 20260906072956 | 77 | 0.0 | 0.0 | 0.00 | 0.00 | 0.00 | 59 | 1027.6 | |
| 20260906071956 | 76 | 0.0 | 0.0 | 0.00 | 0.00 | 0.00 | 61 | 1027.7 | |
| 20260906070956 | 75 | 0.0 | 0.0 | 0.00 | 0.00 | 0.00 | 62 | 1027.8 | |
| 20260906065956 | 75 | 0.0 | 0.0 | 0.00 | 0.00 | 0.00 | 65 | 1027.6 | |
| 20260906064956 | 73 | 0.0 | 0.0 | 0.00 | 0.00 | 0.00 | 65 | 1027.6 | |
| 20260906063956 | 72 | 0.0 | 0.0 | 0.00 | 0.00 | 0.00 | 68 | 1027.5 | |
| 20260906062956 | 70 | 0.0 | 0.0 | 0.00 | 0.00 | 0.00 | 72 | 1027.5 | |
| 20260906061956 | 69 | 0.0 | 0.0 | 0.00 | 0.00 | 0.00 | 77 | 1027.6 | |
| 20260906060956 | 69 | 0.0 | 0.0 | 0.00 | 0.00 | 0.00 | 79 | 1027.5 | |
| 20260906055956 | 68 | 0.0 | 0.0 | 0.00 | 0.00 | 0.00 | 80 | 1027.6 | |
| 20260906054956 | 66 | 0.0 | 0.0 | 0.00 | 0.00 | 0.00 | 84 | 1027.6 | |
| 20260906053956 | 66 | 0.0 | 0.0 | 0.00 | 0.00 | 0.00 | 83 | 1027.5 | |
| 20260906052956 | 65 | 0.0 | 0.0 | 0.00 | 0.00 | 0.00 | 88 | 1027.6 | |
| 20260906051956 | 65 | 0.0 | 0.0 | 0.00 | 0.00 | 0.00 | 89 | 1027.5 | |
| 20260906050956 | 64 | 0.0 | 0.0 | 0.00 | 0.00 | 0.00 | 90 | 1027.4 | |
| 20260906045956 | 63 | 0.0 | 0.0 | 0.00 | 0.00 | 0.00 | 93 | 1027.3 | |
| 20260906044956 | 62 | 0.0 | 0.0 | 0.00 | 0.00 | 0.00 | 95 | 1027.3 | |
| 20260906043956 | 61 | 0.0 | 0.0 | 0.00 | 0.00 | 0.00 | 96 | 1027.2 | |
| 20260906042956 | 61 | 0.0 | 0.0 | 0.00 | 0.00 | 0.00 | 96 | 1027.2 | |
| 20260906041956 | 61 | 0.0 | 0.0 | 0.00 | 0.00 | 0.00 | 96 | 1027.1 | |
| 20260906040956 | 60 | 0.0 | 0.0 | 0.00 | 0.00 | 0.00 | 95 | 1027.0 | |
| 20260906035956 | 60 | 0.0 | 0.0 | 0.00 | 0.00 | 0.00 | 95 | 1026.9 | |
| 20260906034956 | 59 | 0.0 | 0.0 | 0.00 | 0.00 | 0.00 | 94 | 1026.9 | |
| 20260906033956 | 59 | 0.0 | 0.0 | 0.00 | 0.00 | 0.00 | 92 | 1026.9 | |
| 20260906032956 | 59 | 0.0 | 0.0 | 0.00 | 0.00 | 0.00 | 91 | 1026.9 | |
| 20260906031956 | 60 | 0.0 | 0.0 | 0.00 | 0.00 | 0.00 | 91 | 1026.8 | |
| 20260906030956 | 59 | 0.0 | 0.0 | 0.00 | 0.00 | 0.00 | 90 | 1026.8 | |
| 20260906025956 | 59 | 0.0 | 0.0 | 0.00 | 0.00 | 0.00 | 91 | 1026.8 | |
| 20260906024956 | 59 | 0.0 | 0.0 | 0.00 | 0.00 | 0.00 | 91 | 1026.7 | |
| 20260906023956 | 59 | 0.0 | 0.0 | 0.00 | 0.00 | 0.00 | 88 | 1026.8 | |
| 20260906022956 | 60 | 0.0 | 0.0 | 0.00 | 0.00 | 0.00 | 88 | 1026.6 | |
| 20260906021956 | 60 | 0.0 | 0.0 | 0.00 | 0.00 | 0.00 | 89 | 1026.4 | |
| 20260906020956 | 60 | 0.0 | 0.0 | 0.00 | 0.00 | 0.00 | 90 | 1026.4 | |
| 20260906015956 | 60 | 0.0 | 0.0 | 0.00 | 0.00 | 0.00 | 90 | 1026.4 | |
| 20260906014956 | 59 | 0.0 | 0.0 | 0.00 | 0.00 | 0.00 | 92 | 1026.2 | |
| 20260906013956 | 59 | 0.0 | 0.0 | 0.00 | 0.00 | 0.00 | 90 | 1026.3 | |
| 20260906012956 | 60 | 0.0 | 0.0 | 0.00 | 0.00 | 0.00 | 90 | 1026.3 | |
| 20260906011956 | 60 | 0.0 | 0.0 | 0.00 | 0.00 | 0.00 | 89 | 1026.2 | |
| 20260906010956 | 60 | 0.0 | 0.0 | 0.00 | 0.00 | 0.00 | 91 | 1026.3 | |
| 20260906005955 | 60 | 0.0 | 0.0 | 0.00 | 0.00 | 0.00 | 91 | 1026.3 | |
| 20260906004955 | 61 | 0.0 | 0.0 | 0.00 | 0.00 | 0.00 | 89 | 1026.3 | |
| 20260906003956 | 61 | 0.0 | 0.0 | 0.00 | 0.00 | 0.00 | 90 | 1026.3 | |
| 20260906002955 | 61 | 0.0 | 0.0 | 0.00 | 0.00 | 0.00 | 89 | 1026.3 | |
| 20260906001956 | 61 | 0.0 | 0.0 | 0.00 | 0.00 | 0.00 | 91 | 1026.3 | |
| 20260906000955 | 60 | 0.0 | 0.0 | 0.00 | 0.00 | 0.00 | 92 | 1026.4 | |
| 20260905235955 | 61 | 0.0 | 0.0 | 0.00 | 0.00 | 0.00 | 91 | 1026.3 | |
| 20260905234955 | 61 | 0.0 | 0.0 | 0.00 | 0.00 | 0.00 | 90 | 1026.2 | |
| 20260905233955 | 62 | 0.0 | 0.0 | 0.00 | 0.00 | 0.00 | 89 | 1026.3 | |
| 20260905232955 | 61 | 0.0 | 0.0 | 0.00 | 0.00 | 0.00 | 91 | 1026.3 | |
| 20260905231955 | 61 | 0.0 | 0.0 | 0.00 | 0.00 | 0.00 | 90 | 1026.4 | |
| 20260905230955 | 61 | 0.0 | 0.0 | 0.00 | 0.00 | 0.00 | 89 | 1026.4 | |
| 20260905225955 | 62 | 0.0 | 0.0 | 0.00 | 0.00 | 0.00 | 90 | 1026.5 | |
| 20260905224955 | 62 | 0.0 | 0.0 | 0.00 | 0.00 | 0.00 | 88 | 1026.6 | |
| 20260905223955 | 63 | 0.0 | 0.0 | 0.00 | 0.00 | 0.00 | 88 | 1026.6 | |
| 20260905222955 | 63 | 0.0 | 0.0 | 0.00 | 0.00 | 0.00 | 89 | 1026.5 | |
| 20260905221955 | 63 | 0.0 | 0.0 | 0.00 | 0.00 | 0.00 | 89 | 1026.6 | |
| 20260905220955 | 62 | 0.0 | 0.0 | 0.00 | 0.00 | 0.00 | 89 | 1026.7 | |
| 20260905215955 | 63 | 0.0 | 0.0 | 0.00 | 0.00 | 0.00 | 88 | 1026.9 | |
| 20260905214955 | 63 | 0.0 | 0.0 | 0.00 | 0.00 | 0.00 | 89 | 1026.9 | |
| 20260905213955 | 63 | 0.0 | 0.0 | 0.00 | 0.00 | 0.00 | 89 | 1026.9 | |
| 20260905212955 | 64 | 0.0 | 0.0 | 0.00 | 0.00 | 0.00 | 87 | 1027.0 | |
| 20260905211955 | 64 | 0.0 | 0.0 | 0.00 | 0.00 | 0.00 | 90 | 1027.1 | |
| 20260905210955 | 63 | 0.0 | 0.0 | 0.00 | 0.00 | 0.00 | 89 | 1027.0 | |
| 20260905205955 | 63 | 0.0 | 0.0 | 0.00 | 0.00 | 0.00 | 90 | 1027.0 | |
| 20260905204955 | 64 | 0.0 | 0.0 | 0.00 | 0.00 | 0.00 | 90 | 1027.0 | |
| 20260905203955 | 64 | 0.0 | 0.0 | 0.00 | 0.00 | 0.00 | 90 | 1027.0 | |
| 20260905202955 | 64 | 0.0 | 0.0 | 0.00 | 0.00 | 0.00 | 90 | 1027.1 | |
| 20260905201955 | 64 | 0.0 | 0.0 | 0.00 | 0.00 | 0.00 | 90 | 1026.9 | |
| 20260905200955 | 64 | 0.0 | 0.0 | 0.00 | 0.00 | 0.00 | 91 | 1026.9 | |
| 20260905195955 | 64 | 0.0 | 0.0 | 0.00 | 0.00 | 0.00 | 90 | 1026.9 | |
| 20260905194955 | 65 | 0.0 | 0.0 | 0.00 | 0.00 | 0.00 | 89 | 1027.0 | |
| 20260905193955 | 65 | 0.0 | 0.0 | 0.00 | 0.00 | 0.00 | 90 | 1027.0 | |
| 20260905192955 | 65 | 0.0 | 0.0 | 0.00 | 0.00 | 0.00 | 90 | 1027.0 | |
| 20260905191955 | 65 | 0.0 | 0.0 | 0.00 | 0.00 | 0.00 | 89 | 1027.0 | |
| 20260905190955 | 65 | 0.0 | 0.0 | 0.00 | 0.00 | 0.00 | 89 | 1026.9 | |
| 20260905185955 | 66 | 0.0 | 0.0 | 0.00 | 0.00 | 0.00 | 88 | 1027.0 | |
| 20260905184955 | 66 | 0.0 | 0.0 | 0.00 | 0.00 | 0.00 | 86 | 1027.1 | |
| 20260905183955 | 67 | 0.0 | 0.0 | 0.00 | 0.00 | 0.00 | 85 | 1027.1 | |
| 20260905182955 | 67 | 0.0 | 0.0 | 0.00 | 0.00 | 0.00 | 84 | 1027.1 | |
| 20260905181955 | 68 | 0.0 | 0.0 | 0.00 | 0.00 | 0.00 | 84 | 1027.1 | |
| 20260905180955 | 68 | 0.0 | 0.0 | 0.00 | 0.00 | 0.00 | 82 | 1027.2 | |
| 20260905175955 | 68 | 0.0 | 0.0 | 0.00 | 0.00 | 0.00 | 82 | 1027.1 | |
| 20260905174955 | 69 | 0.0 | 0.0 | 0.00 | 0.00 | 0.00 | 80 | 1027.1 | |
| 20260905173955 | 70 | 0.0 | 0.0 | 0.00 | 0.00 | 0.00 | 80 | 1027.0 | |
| 20260905172955 | 70 | 0.0 | 0.0 | 0.00 | 0.00 | 0.00 | 79 | 1026.9 | |
| 20260905171955 | 71 | 0.0 | 0.0 | 0.00 | 0.00 | 0.00 | 78 | 1026.8 | |
| 20260905170955 | 72 | 0.0 | 0.0 | 0.00 | 0.00 | 0.00 | 77 | 1026.7 | |
| 20260905165955 | 72 | 0.0 | 0.0 | 0.00 | 0.00 | 0.00 | 77 | 1026.6 | |
| 20260905164955 | 72 | 0.0 | 0.0 | 0.00 | 0.00 | 0.00 | 76 | 1026.5 | |
| 20260905163955 | 73 | 0.0 | 0.0 | 0.00 | 0.00 | 0.00 | 75 | 1026.5 | |
| 20260905162955 | 74 | 0.0 | 0.0 | 0.00 | 0.00 | 0.00 | 72 | 1026.4 | |
| 20260905161955 | 74 | 0.0 | 0.0 | 0.00 | 0.00 | 0.00 | 71 | 1026.4 | |
| 20260905160955 | 75 | 0.0 | 0.0 | 0.00 | 0.00 | 0.00 | 70 | 1026.4 | |
| 20260905155955 | 75 | 0.0 | 0.0 | 0.00 | 0.00 | 0.00 | 67 | 1026.4 | |
| 20260905154955 | 76 | 0.0 | 0.0 | 0.00 | 0.00 | 0.00 | 65 | 1026.4 | |
| 20260905153955 | 77 | 0.0 | 0.0 | 0.00 | 0.00 | 0.00 | 62 | 1026.4 | |
| 20260905152955 | 78 | 0.0 | 0.0 | 0.00 | 0.00 | 0.00 | 59 | 1026.5 | |
| 20260905151955 | 79 | 0.0 | 0.0 | 0.00 | 0.00 | 0.00 | 58 | 1026.6 | |
| 20260905150955 | 80 | 0.0 | 0.0 | 0.00 | 0.00 | 0.00 | 58 | 1026.5 | |
| 20260905145955 | 80 | 0.0 | 0.0 | 0.00 | 0.00 | 0.00 | 58 | 1026.5 | |
| 20260905144955 | 81 | 0.0 | 0.0 | 0.00 | 0.00 | 0.00 | 57 | 1026.6 | |
| 20260905143955 | 82 | 0.0 | 0.0 | 0.00 | 0.00 | 0.00 | 55 | 1026.6 | |
| 20260905142955 | 83 | 0.0 | 0.0 | 0.00 | 0.00 | 0.00 | 55 | 1026.6 | |
| 20260905141955 | 83 | 0.0 | 0.0 | 0.00 | 0.00 | 0.00 | 55 | 1026.6 | |
| 20260905140955 | 83 | 0.0 | 0.0 | 0.00 | 0.00 | 0.00 | 55 | 1026.5 | |
| 20260905135955 | 83 | 0.0 | 0.0 | 0.00 | 0.00 | 0.00 | 57 | 1026.5 | |
| 20260905134955 | 84 | 0.0 | 0.0 | 0.00 | 0.00 | 0.00 | 56 | 1026.6 | |
| 20260905133955 | 84 | 0.0 | 0.0 | 0.00 | 0.00 | 0.00 | 56 | 1026.6 | |
| 20260905132955 | 85 | 0.0 | 0.0 | 0.00 | 0.00 | 0.00 | 56 | 1026.7 | |
| 20260905131955 | 85 | 0.0 | 0.0 | 0.00 | 0.00 | 0.00 | 56 | 1026.7 | |
| 20260905130955 | 85 | 0.0 | 0.0 | 0.00 | 0.00 | 0.00 | 56 | 1026.7 | |
| 20260905125955 | 85 | 0.0 | 0.0 | 0.00 | 0.00 | 0.00 | 55 | 1026.8 | |
| 20260905124955 | 86 | 0.0 | 0.0 | 0.00 | 0.00 | 0.00 | 56 | 1026.7 | |
| 20260905123955 | 87 | 0.0 | 0.0 | 0.00 | 0.00 | 0.00 | 53 | 1026.8 | |
| 20260905122955 | 86 | 0.0 | 0.0 | 0.00 | 0.00 | 0.00 | 55 | 1026.9 | |
| 20260905121954 | 87 | 0.0 | 0.0 | 0.00 | 0.00 | 0.00 | 54 | 1027.0 | |
| 20260905120954 | 87 | 0.0 | 0.0 | 0.00 | 0.00 | 0.00 | 54 | 1027.0 | |
| 20260905115955 | 87 | 0.0 | 0.0 | 0.00 | 0.00 | 0.00 | 56 | 1027.1 | |
| 20260905114954 | 88 | 0.0 | 0.0 | 0.00 | 0.00 | 0.00 | 53 | 1027.2 | |
| 20260905113954 | 88 | 0.0 | 0.0 | 0.00 | 0.00 | 0.00 | 52 | 1027.3 | |
| 20260905112954 | 90 | 0.0 | 0.0 | 0.00 | 0.00 | 0.00 | 52 | 1027.4 |